Henly, Texas
Current Conditions -  °F | °C
As of 12:35 AM on Saturday 25 Oct 2014 (Local Time) from KRYW Reporting Station
Clear Clear  
Wind Chill: 70°   Ceiling: Unl
Heat Index: 70°   Visibility: 10mi
Dew Point: 58°   Wind: 5mph
Humidity: 67%   Direction: 160°SSE
Pressure: 30.16"   Gusts: NA
Location:  30.2468°N, 98.1159°W
Report Text: KRYW 250535Z AUTO 16004KT 10SM CLR 21/15 A3016 RMK AO2 T02090146
Loading
Personal Weather Stations






























Interactive Weather Map
Tropical Storm Tracking
New forecast layout! Learn more

10-Day Weather Forecast

Advertisements
Track Severe Weather on mobile